Airfield :
LOGIN :

Register | Disclaimer

   EN    FR    IT 

 










Legend :    VFR   Marginal VFR   IFR   Intensive IFR   Very Intensive IFR
Visi :
Ceiling :
>= 8 km
>= 3000ft
5 to 8 km
1000 to 3000 ft
1500m to 5 km
500 to 1000 ft
800 to 1500m
200 to 500 ft
< 800m
< 200 ft
Symbols :   Thunderstorms  Fog  Heavy snow  Heavy precipitations  Wind > 20 kt
SIGMETs :     Misc.  Thunderstorms  Icing  Turbulence  Mountain Waves  Volcanic Ashes







- Airport Elevation : 63 ft
- IATA code : BZM


EHWO - Woensdrecht Airbase

CURRENT METAR :
  • 181525Z AUTO 24013KT 200V280 9999 SCT023 OVC027 18/13 Q1020 WHT

EXPIRED METARs :
  • 181455Z AUTO 24013KT 9999 FEW018 SCT026 OVC031 18/14 Q1020 BLU
  • 181425Z AUTO 24014KT 220V290 9999 FEW018 BKN021 BKN026 18/14 Q1020 WHT
  • 181355Z AUTO 25014KT 220V290 9999 FEW020 OVC024 19/13 Q1020 WHT 25018KT 9999 SCT022 BKN028
  • 181325Z AUTO 26018KT 220V310 9999 SCT021 OVC025 19/13 Q1020 WHT 25012KT 9999 SCT022 BKN028
  • 181255Z AUTO 25016KT 210V300 9999 OVC025 19/13 Q1020 BLU 25012KT 9999 FEW019 SCT022 BKN028
  • 181225Z AUTO 24011KT 220V280 9999 BKN019 OVC022 19/14 Q1020 WHT 25012KT 9999 FEW019 SCT022 BKN028

TAF TAF EHWO
Valid from the 18 at 05:00 until the 18 at 17:00 UTC


180411Z 1805/1817 22010KT 9999 FEW007 SCT010 BKN015
TEMPO 1805/1810 4500 -RADZ SCT005 BKN007
PROB30
TEMPO 1805/1809 2000 -DZRA BR SCT003 BKN005
BECMG 1810/1812 27010KT SCT020 BKN030
No reported NOTAMs for that airfield.



MET'MAP, your aeronautical weather chart ! - Copyright ORBIFLY December 2007 - Disclaimer

ORBIFLY MET'MAP TEAM :

Programming & Development : Alexandra Zaïnal
Concept & Development : Baudouin d'Aumeries
Co-Development & Prog : Marc-Olivier Méhu
Technical & hardware support : Manuel Goepfert

Contact : metmap@orbifly.com




SOURCES & CREDITS :

   NOAA